sensor_id;sensor_type;location;lat;lon;timestamp;P1;durP1;ratioP1;P2;durP2;ratioP2
68353;SDS011;55274;43.060;25.618;2023-01-19T00:01:30;22.75;;;2.97;;
68353;SDS011;55274;43.060;25.618;2023-01-19T00:03:55;16.35;;;2.97;;
68353;SDS011;55274;43.060;25.618;2023-01-19T00:06:22;18.45;;;2.90;;
68353;SDS011;55274;43.060;25.618;2023-01-19T00:08:48;18.23;;;3.60;;
68353;SDS011;55274;43.060;25.618;2023-01-19T00:11:16;16.90;;;2.88;;
68353;SDS011;55274;43.060;25.618;2023-01-19T00:13:43;18.73;;;3.10;;
68353;SDS011;55274;43.060;25.618;2023-01-19T00:16:15;25.75;;;2.85;;
68353;SDS011;55274;43.060;25.618;2023-01-19T00:18:43;19.63;;;3.22;;
68353;SDS011;55274;43.060;25.618;2023-01-19T00:21:09;19.95;;;3.42;;
68353;SDS011;55274;43.060;25.618;2023-01-19T00:23:35;20.33;;;2.55;;
68353;SDS011;55274;43.060;25.618;2023-01-19T00:26:01;24.38;;;3.20;;
68353;SDS011;55274;43.060;25.618;2023-01-19T00:28:26;22.73;;;3.40;;
68353;SDS011;55274;43.060;25.618;2023-01-19T00:30:52;17.00;;;3.00;;
68353;SDS011;55274;43.060;25.618;2023-01-19T00:33:18;20.95;;;3.17;;
68353;SDS011;55274;43.060;25.618;2023-01-19T00:35:44;24.20;;;3.78;;
68353;SDS011;55274;43.060;25.618;2023-01-19T00:38:10;18.35;;;3.15;;
68353;SDS011;55274;43.060;25.618;2023-01-19T00:40:36;17.45;;;3.78;;
68353;SDS011;55274;43.060;25.618;2023-01-19T00:43:02;20.42;;;2.90;;
68353;SDS011;55274;43.060;25.618;2023-01-19T00:45:29;21.15;;;3.40;;
68353;SDS011;55274;43.060;25.618;2023-01-19T00:47:55;21.52;;;3.25;;
68353;SDS011;55274;43.060;25.618;2023-01-19T00:50:21;20.92;;;2.60;;
68353;SDS011;55274;43.060;25.618;2023-01-19T00:52:48;21.73;;;4.78;;
68353;SDS011;55274;43.060;25.618;2023-01-19T00:55:15;19.27;;;3.33;;
68353;SDS011;55274;43.060;25.618;2023-01-19T00:57:41;16.80;;;2.75;;
68353;SDS011;55274;43.060;25.618;2023-01-19T01:00:14;20.67;;;2.88;;
68353;SDS011;55274;43.060;25.618;2023-01-19T01:02:42;18.10;;;2.55;;
68353;SDS011;55274;43.060;25.618;2023-01-19T01:05:08;14.38;;;3.30;;
68353;SDS011;55274;43.060;25.618;2023-01-19T01:07:35;19.35;;;3.13;;
68353;SDS011;55274;43.060;25.618;2023-01-19T01:10:08;18.33;;;2.55;;
68353;SDS011;55274;43.060;25.618;2023-01-19T01:12:48;20.25;;;3.17;;
68353;SDS011;55274;43.060;25.618;2023-01-19T01:15:14;19.55;;;3.03;;
68353;SDS011;55274;43.060;25.618;2023-01-19T01:17:41;17.60;;;3.58;;
68353;SDS011;55274;43.060;25.618;2023-01-19T01:20:11;24.15;;;3.33;;
68353;SDS011;55274;43.060;25.618;2023-01-19T01:22:41;16.08;;;2.40;;
68353;SDS011;55274;43.060;25.618;2023-01-19T01:25:10;11.45;;;2.53;;
68353;SDS011;55274;43.060;25.618;2023-01-19T01:27:40;20.90;;;3.03;;
68353;SDS011;55274;43.060;25.618;2023-01-19T01:30:07;16.67;;;2.92;;
68353;SDS011;55274;43.060;25.618;2023-01-19T01:32:34;20.55;;;3.03;;
68353;SDS011;55274;43.060;25.618;2023-01-19T01:35:00;19.08;;;3.10;;
68353;SDS011;55274;43.060;25.618;2023-01-19T01:37:26;20.73;;;3.17;;
68353;SDS011;55274;43.060;25.618;2023-01-19T01:39:52;16.90;;;3.20;;
68353;SDS011;55274;43.060;25.618;2023-01-19T01:42:18;21.25;;;3.38;;
68353;SDS011;55274;43.060;25.618;2023-01-19T01:44:53;30.02;;;3.85;;
68353;SDS011;55274;43.060;25.618;2023-01-19T01:55:17;16.52;;;2.70;;
68353;SDS011;55274;43.060;25.618;2023-01-19T01:57:47;21.20;;;3.00;;
68353;SDS011;55274;43.060;25.618;2023-01-19T02:00:17;18.73;;;3.25;;
68353;SDS011;55274;43.060;25.618;2023-01-19T02:02:43;15.52;;;2.53;;
68353;SDS011;55274;43.060;25.618;2023-01-19T02:05:33;17.35;;;2.85;;
68353;SDS011;55274;43.060;25.618;2023-01-19T02:10:50;17.65;;;2.95;;
68353;SDS011;55274;43.060;25.618;2023-01-19T02:13:35;20.10;;;2.90;;
68353;SDS011;55274;43.060;25.618;2023-01-19T02:16:06;19.10;;;3.10;;
68353;SDS011;55274;43.060;25.618;2023-01-19T02:18:33;20.45;;;2.85;;
68353;SDS011;55274;43.060;25.618;2023-01-19T02:23:50;20.48;;;2.83;;
68353;SDS011;55274;43.060;25.618;2023-01-19T02:26:24;20.90;;;3.63;;
68353;SDS011;55274;43.060;25.618;2023-01-19T02:28:56;23.35;;;3.22;;
68353;SDS011;55274;43.060;25.618;2023-01-19T02:31:24;22.27;;;3.75;;
68353;SDS011;55274;43.060;25.618;2023-01-19T02:33:51;16.58;;;3.40;;
68353;SDS011;55274;43.060;25.618;2023-01-19T02:36:20;31.73;;;3.70;;
68353;SDS011;55274;43.060;25.618;2023-01-19T02:38:50;23.65;;;3.78;;
68353;SDS011;55274;43.060;25.618;2023-01-19T02:41:22;15.73;;;2.92;;
68353;SDS011;55274;43.060;25.618;2023-01-19T02:43:52;24.25;;;3.03;;
68353;SDS011;55274;43.060;25.618;2023-01-19T02:46:19;25.27;;;3.40;;
68353;SDS011;55274;43.060;25.618;2023-01-19T02:48:45;18.83;;;3.10;;
68353;SDS011;55274;43.060;25.618;2023-01-19T02:51:20;21.10;;;3.10;;
68353;SDS011;55274;43.060;25.618;2023-01-19T02:53:52;13.70;;;3.10;;
68353;SDS011;55274;43.060;25.618;2023-01-19T03:07:24;16.00;;;3.38;;
68353;SDS011;55274;43.060;25.618;2023-01-19T03:12:43;18.50;;;3.42;;
68353;SDS011;55274;43.060;25.618;2023-01-19T03:17:47;21.00;;;3.45;;
68353;SDS011;55274;43.060;25.618;2023-01-19T03:20:17;29.67;;;4.18;;
68353;SDS011;55274;43.060;25.618;2023-01-19T03:22:47;18.35;;;4.07;;
68353;SDS011;55274;43.060;25.618;2023-01-19T03:25:15;21.50;;;3.67;;
68353;SDS011;55274;43.060;25.618;2023-01-19T03:27:43;22.02;;;3.50;;
68353;SDS011;55274;43.060;25.618;2023-01-19T03:30:12;20.35;;;3.50;;
68353;SDS011;55274;43.060;25.618;2023-01-19T03:32:50;21.77;;;3.25;;
68353;SDS011;55274;43.060;25.618;2023-01-19T03:35:20;22.42;;;3.00;;
68353;SDS011;55274;43.060;25.618;2023-01-19T03:37:49;22.33;;;3.38;;
68353;SDS011;55274;43.060;25.618;2023-01-19T03:40:19;18.70;;;2.88;;
68353;SDS011;55274;43.060;25.618;2023-01-19T03:42:46;20.80;;;3.13;;
68353;SDS011;55274;43.060;25.618;2023-01-19T03:45:14;19.33;;;3.58;;
68353;SDS011;55274;43.060;25.618;2023-01-19T03:47:40;26.70;;;3.58;;
68353;SDS011;55274;43.060;25.618;2023-01-19T03:50:07;18.70;;;4.03;;
68353;SDS011;55274;43.060;25.618;2023-01-19T03:52:39;24.80;;;3.70;;
68353;SDS011;55274;43.060;25.618;2023-01-19T03:55:05;19.80;;;3.20;;
68353;SDS011;55274;43.060;25.618;2023-01-19T03:57:31;15.52;;;3.42;;
68353;SDS011;55274;43.060;25.618;2023-01-19T03:59:56;15.57;;;3.58;;
68353;SDS011;55274;43.060;25.618;2023-01-19T04:02:23;22.58;;;3.70;;
68353;SDS011;55274;43.060;25.618;2023-01-19T04:04:49;23.77;;;3.53;;
68353;SDS011;55274;43.060;25.618;2023-01-19T04:07:14;21.25;;;3.92;;
68353;SDS011;55274;43.060;25.618;2023-01-19T04:09:40;17.63;;;3.47;;
68353;SDS011;55274;43.060;25.618;2023-01-19T04:12:06;24.67;;;3.67;;
68353;SDS011;55274;43.060;25.618;2023-01-19T04:14:32;20.92;;;4.07;;
68353;SDS011;55274;43.060;25.618;2023-01-19T04:16:58;23.33;;;3.83;;
68353;SDS011;55274;43.060;25.618;2023-01-19T04:19:24;27.95;;;3.67;;
68353;SDS011;55274;43.060;25.618;2023-01-19T04:21:49;21.88;;;4.25;;
68353;SDS011;55274;43.060;25.618;2023-01-19T04:24:15;29.30;;;4.00;;
68353;SDS011;55274;43.060;25.618;2023-01-19T04:26:42;22.67;;;3.92;;
68353;SDS011;55274;43.060;25.618;2023-01-19T04:29:08;23.17;;;5.18;;
68353;SDS011;55274;43.060;25.618;2023-01-19T04:31:34;41.55;;;5.93;;
68353;SDS011;55274;43.060;25.618;2023-01-19T04:34:01;22.95;;;4.50;;
68353;SDS011;55274;43.060;25.618;2023-01-19T04:36:27;25.90;;;5.00;;
68353;SDS011;55274;43.060;25.618;2023-01-19T04:38:53;22.48;;;4.32;;
68353;SDS011;55274;43.060;25.618;2023-01-19T04:41:19;27.60;;;4.32;;
68353;SDS011;55274;43.060;25.618;2023-01-19T04:43:45;33.50;;;4.53;;
68353;SDS011;55274;43.060;25.618;2023-01-19T04:46:12;26.00;;;3.88;;
68353;SDS011;55274;43.060;25.618;2023-01-19T04:48:38;27.38;;;3.85;;
68353;SDS011;55274;43.060;25.618;2023-01-19T04:51:04;27.77;;;3.70;;
68353;SDS011;55274;43.060;25.618;2023-01-19T04:53:30;24.25;;;3.83;;
68353;SDS011;55274;43.060;25.618;2023-01-19T04:55:55;25.92;;;4.28;;
68353;SDS011;55274;43.060;25.618;2023-01-19T04:58:23;30.90;;;4.15;;
68353;SDS011;55274;43.060;25.618;2023-01-19T05:00:48;21.05;;;3.53;;
68353;SDS011;55274;43.060;25.618;2023-01-19T05:03:15;27.58;;;4.00;;
68353;SDS011;55274;43.060;25.618;2023-01-19T05:05:40;25.60;;;4.10;;
68353;SDS011;55274;43.060;25.618;2023-01-19T05:08:06;22.13;;;3.80;;
68353;SDS011;55274;43.060;25.618;2023-01-19T05:10:32;33.88;;;5.13;;
68353;SDS011;55274;43.060;25.618;2023-01-19T05:12:58;23.63;;;4.03;;
68353;SDS011;55274;43.060;25.618;2023-01-19T05:15:23;19.33;;;4.18;;
68353;SDS011;55274;43.060;25.618;2023-01-19T05:17:49;28.05;;;3.70;;
68353;SDS011;55274;43.060;25.618;2023-01-19T05:20:15;30.98;;;5.30;;
68353;SDS011;55274;43.060;25.618;2023-01-19T05:22:41;29.90;;;4.97;;
68353;SDS011;55274;43.060;25.618;2023-01-19T05:25:07;25.42;;;4.30;;
68353;SDS011;55274;43.060;25.618;2023-01-19T05:27:34;20.10;;;3.72;;
68353;SDS011;55274;43.060;25.618;2023-01-19T05:30:00;25.25;;;3.97;;
68353;SDS011;55274;43.060;25.618;2023-01-19T05:32:28;37.50;;;5.45;;
68353;SDS011;55274;43.060;25.618;2023-01-19T05:34:54;22.25;;;3.58;;
68353;SDS011;55274;43.060;25.618;2023-01-19T05:37:20;25.70;;;4.25;;
68353;SDS011;55274;43.060;25.618;2023-01-19T05:39:45;26.13;;;3.95;;
68353;SDS011;55274;43.060;25.618;2023-01-19T05:42:11;29.77;;;4.82;;
68353;SDS011;55274;43.060;25.618;2023-01-19T05:44:37;33.35;;;4.85;;
68353;SDS011;55274;43.060;25.618;2023-01-19T05:47:02;21.80;;;3.78;;
68353;SDS011;55274;43.060;25.618;2023-01-19T05:49:29;38.97;;;5.05;;
68353;SDS011;55274;43.060;25.618;2023-01-19T05:51:55;28.38;;;4.45;;
68353;SDS011;55274;43.060;25.618;2023-01-19T05:54:20;28.10;;;4.57;;
68353;SDS011;55274;43.060;25.618;2023-01-19T05:56:46;30.23;;;4.25;;
68353;SDS011;55274;43.060;25.618;2023-01-19T05:59:12;29.45;;;4.22;;
68353;SDS011;55274;43.060;25.618;2023-01-19T06:01:39;24.77;;;4.20;;
68353;SDS011;55274;43.060;25.618;2023-01-19T06:04:05;43.00;;;4.85;;
68353;SDS011;55274;43.060;25.618;2023-01-19T06:06:31;24.92;;;4.43;;
68353;SDS011;55274;43.060;25.618;2023-01-19T06:08:57;27.38;;;4.55;;
68353;SDS011;55274;43.060;25.618;2023-01-19T06:11:23;35.30;;;4.65;;
68353;SDS011;55274;43.060;25.618;2023-01-19T06:13:50;23.80;;;5.03;;
68353;SDS011;55274;43.060;25.618;2023-01-19T06:16:15;25.63;;;4.35;;
68353;SDS011;55274;43.060;25.618;2023-01-19T06:18:41;30.90;;;4.57;;
68353;SDS011;55274;43.060;25.618;2023-01-19T06:21:07;33.58;;;4.75;;
68353;SDS011;55274;43.060;25.618;2023-01-19T06:23:36;30.15;;;4.60;;
68353;SDS011;55274;43.060;25.618;2023-01-19T06:26:02;24.15;;;4.57;;
68353;SDS011;55274;43.060;25.618;2023-01-19T06:28:28;28.38;;;5.07;;
68353;SDS011;55274;43.060;25.618;2023-01-19T06:30:54;28.02;;;4.53;;
68353;SDS011;55274;43.060;25.618;2023-01-19T06:33:21;36.60;;;4.18;;
68353;SDS011;55274;43.060;25.618;2023-01-19T06:35:48;25.17;;;5.10;;
68353;SDS011;55274;43.060;25.618;2023-01-19T06:38:15;27.98;;;4.50;;
68353;SDS011;55274;43.060;25.618;2023-01-19T06:40:42;34.70;;;5.22;;
68353;SDS011;55274;43.060;25.618;2023-01-19T06:43:09;24.05;;;3.70;;
68353;SDS011;55274;43.060;25.618;2023-01-19T06:45:36;27.45;;;4.47;;
68353;SDS011;55274;43.060;25.618;2023-01-19T06:48:03;28.60;;;4.97;;
68353;SDS011;55274;43.060;25.618;2023-01-19T06:50:29;24.02;;;4.13;;
68353;SDS011;55274;43.060;25.618;2023-01-19T06:52:55;33.13;;;4.65;;
68353;SDS011;55274;43.060;25.618;2023-01-19T06:55:21;31.02;;;4.32;;
68353;SDS011;55274;43.060;25.618;2023-01-19T06:57:47;24.50;;;4.57;;
68353;SDS011;55274;43.060;25.618;2023-01-19T07:00:12;28.23;;;4.35;;
68353;SDS011;55274;43.060;25.618;2023-01-19T07:02:41;27.65;;;4.30;;
68353;SDS011;55274;43.060;25.618;2023-01-19T07:05:08;28.17;;;4.60;;
68353;SDS011;55274;43.060;25.618;2023-01-19T07:07:35;30.60;;;5.13;;
68353;SDS011;55274;43.060;25.618;2023-01-19T07:10:04;25.45;;;4.43;;
68353;SDS011;55274;43.060;25.618;2023-01-19T07:12:32;28.75;;;4.50;;
68353;SDS011;55274;43.060;25.618;2023-01-19T07:14:58;25.83;;;3.60;;
68353;SDS011;55274;43.060;25.618;2023-01-19T07:17:24;27.38;;;4.00;;
68353;SDS011;55274;43.060;25.618;2023-01-19T07:19:50;24.42;;;4.40;;
68353;SDS011;55274;43.060;25.618;2023-01-19T07:22:16;20.23;;;4.10;;
68353;SDS011;55274;43.060;25.618;2023-01-19T07:24:42;24.08;;;3.70;;
68353;SDS011;55274;43.060;25.618;2023-01-19T07:27:08;24.10;;;3.40;;
68353;SDS011;55274;43.060;25.618;2023-01-19T07:29:35;30.38;;;4.40;;
68353;SDS011;55274;43.060;25.618;2023-01-19T07:32:02;27.48;;;3.55;;
68353;SDS011;55274;43.060;25.618;2023-01-19T07:34:28;24.25;;;3.85;;
68353;SDS011;55274;43.060;25.618;2023-01-19T07:36:54;23.85;;;3.92;;
68353;SDS011;55274;43.060;25.618;2023-01-19T07:39:20;37.85;;;4.40;;
68353;SDS011;55274;43.060;25.618;2023-01-19T07:41:46;34.88;;;4.35;;
68353;SDS011;55274;43.060;25.618;2023-01-19T07:44:13;33.35;;;4.78;;
68353;SDS011;55274;43.060;25.618;2023-01-19T07:46:38;22.42;;;3.58;;
68353;SDS011;55274;43.060;25.618;2023-01-19T07:49:05;28.88;;;3.92;;
68353;SDS011;55274;43.060;25.618;2023-01-19T07:51:31;27.25;;;4.03;;
68353;SDS011;55274;43.060;25.618;2023-01-19T07:53:56;34.13;;;3.95;;
68353;SDS011;55274;43.060;25.618;2023-01-19T07:56:22;33.08;;;4.38;;
68353;SDS011;55274;43.060;25.618;2023-01-19T07:58:48;28.45;;;4.22;;
68353;SDS011;55274;43.060;25.618;2023-01-19T08:01:16;29.23;;;4.88;;
68353;SDS011;55274;43.060;25.618;2023-01-19T08:03:42;26.98;;;3.95;;
68353;SDS011;55274;43.060;25.618;2023-01-19T08:08:43;26.50;;;4.28;;
68353;SDS011;55274;43.060;25.618;2023-01-19T08:11:09;29.65;;;4.10;;
68353;SDS011;55274;43.060;25.618;2023-01-19T08:13:35;28.45;;;4.53;;
68353;SDS011;55274;43.060;25.618;2023-01-19T08:16:00;18.23;;;2.80;;
68353;SDS011;55274;43.060;25.618;2023-01-19T08:18:26;31.60;;;4.55;;
68353;SDS011;55274;43.060;25.618;2023-01-19T08:20:52;37.40;;;4.85;;
68353;SDS011;55274;43.060;25.618;2023-01-19T08:23:18;28.55;;;4.38;;
68353;SDS011;55274;43.060;25.618;2023-01-19T08:25:44;31.08;;;4.15;;
68353;SDS011;55274;43.060;25.618;2023-01-19T08:28:11;25.58;;;3.60;;
68353;SDS011;55274;43.060;25.618;2023-01-19T08:30:38;35.40;;;4.38;;
68353;SDS011;55274;43.060;25.618;2023-01-19T08:33:05;29.63;;;4.15;;
68353;SDS011;55274;43.060;25.618;2023-01-19T08:35:39;39.35;;;5.13;;
68353;SDS011;55274;43.060;25.618;2023-01-19T08:38:06;30.83;;;4.80;;
68353;SDS011;55274;43.060;25.618;2023-01-19T08:40:34;33.25;;;4.75;;
68353;SDS011;55274;43.060;25.618;2023-01-19T08:43:03;22.00;;;4.40;;
68353;SDS011;55274;43.060;25.618;2023-01-19T08:45:32;32.65;;;3.65;;
68353;SDS011;55274;43.060;25.618;2023-01-19T08:47:59;41.58;;;5.13;;
68353;SDS011;55274;43.060;25.618;2023-01-19T08:50:28;28.67;;;4.90;;
68353;SDS011;55274;43.060;25.618;2023-01-19T08:55:22;54.95;;;6.80;;
68353;SDS011;55274;43.060;25.618;2023-01-19T08:57:51;25.23;;;3.50;;
68353;SDS011;55274;43.060;25.618;2023-01-19T09:00:19;23.65;;;4.13;;
68353;SDS011;55274;43.060;25.618;2023-01-19T09:02:46;36.33;;;4.03;;
68353;SDS011;55274;43.060;25.618;2023-01-19T09:05:12;19.17;;;3.00;;
68353;SDS011;55274;43.060;25.618;2023-01-19T09:07:38;24.48;;;3.70;;
68353;SDS011;55274;43.060;25.618;2023-01-19T09:10:04;30.20;;;3.65;;
68353;SDS011;55274;43.060;25.618;2023-01-19T09:12:31;28.60;;;3.92;;
68353;SDS011;55274;43.060;25.618;2023-01-19T09:14:56;31.08;;;3.97;;
68353;SDS011;55274;43.060;25.618;2023-01-19T09:17:22;25.38;;;3.63;;
68353;SDS011;55274;43.060;25.618;2023-01-19T09:19:48;28.58;;;3.65;;
68353;SDS011;55274;43.060;25.618;2023-01-19T09:22:13;25.38;;;3.65;;
68353;SDS011;55274;43.060;25.618;2023-01-19T09:24:39;23.83;;;3.70;;
68353;SDS011;55274;43.060;25.618;2023-01-19T09:27:05;32.47;;;3.65;;
68353;SDS011;55274;43.060;25.618;2023-01-19T09:29:31;29.25;;;4.57;;
68353;SDS011;55274;43.060;25.618;2023-01-19T09:31:57;26.58;;;4.28;;
68353;SDS011;55274;43.060;25.618;2023-01-19T09:34:23;38.92;;;4.25;;
68353;SDS011;55274;43.060;25.618;2023-01-19T09:36:51;33.75;;;3.80;;
68353;SDS011;55274;43.060;25.618;2023-01-19T09:39:17;23.63;;;4.60;;
68353;SDS011;55274;43.060;25.618;2023-01-19T09:41:46;24.75;;;3.42;;
68353;SDS011;55274;43.060;25.618;2023-01-19T09:44:26;21.58;;;4.03;;
68353;SDS011;55274;43.060;25.618;2023-01-19T09:46:53;39.40;;;4.47;;
68353;SDS011;55274;43.060;25.618;2023-01-19T09:49:27;21.52;;;3.30;;
68353;SDS011;55274;43.060;25.618;2023-01-19T09:51:58;32.10;;;3.70;;
68353;SDS011;55274;43.060;25.618;2023-01-19T09:54:35;19.48;;;2.80;;
68353;SDS011;55274;43.060;25.618;2023-01-19T09:57:11;22.65;;;3.05;;
68353;SDS011;55274;43.060;25.618;2023-01-19T10:04:47;29.55;;;3.10;;
68353;SDS011;55274;43.060;25.618;2023-01-19T10:12:56;29.23;;;4.05;;
68353;SDS011;55274;43.060;25.618;2023-01-19T10:15:36;23.48;;;3.33;;
68353;SDS011;55274;43.060;25.618;2023-01-19T10:18:16;24.65;;;3.63;;
68353;SDS011;55274;43.060;25.618;2023-01-19T10:20:47;26.75;;;3.63;;
68353;SDS011;55274;43.060;25.618;2023-01-19T10:23:28;39.35;;;3.95;;
68353;SDS011;55274;43.060;25.618;2023-01-19T10:26:07;21.85;;;3.42;;
68353;SDS011;55274;43.060;25.618;2023-01-19T10:28:37;27.30;;;3.47;;
68353;SDS011;55274;43.060;25.618;2023-01-19T10:31:05;21.30;;;2.90;;
68353;SDS011;55274;43.060;25.618;2023-01-19T10:33:33;21.15;;;3.40;;
68353;SDS011;55274;43.060;25.618;2023-01-19T10:36:02;25.73;;;3.38;;
68353;SDS011;55274;43.060;25.618;2023-01-19T10:38:39;22.35;;;3.10;;
68353;SDS011;55274;43.060;25.618;2023-01-19T10:41:13;21.20;;;2.90;;
68353;SDS011;55274;43.060;25.618;2023-01-19T10:43:43;23.60;;;3.17;;
68353;SDS011;55274;43.060;25.618;2023-01-19T10:46:15;18.27;;;3.67;;
68353;SDS011;55274;43.060;25.618;2023-01-19T10:51:14;14.05;;;2.47;;
68353;SDS011;55274;43.060;25.618;2023-01-19T10:53:41;14.70;;;2.70;;
68353;SDS011;55274;43.060;25.618;2023-01-19T10:56:25;17.45;;;3.10;;
68353;SDS011;55274;43.060;25.618;2023-01-19T10:58:53;18.88;;;3.78;;
68353;SDS011;55274;43.060;25.618;2023-01-19T11:01:23;29.08;;;3.15;;
68353;SDS011;55274;43.060;25.618;2023-01-19T11:03:51;18.30;;;2.92;;
68353;SDS011;55274;43.060;25.618;2023-01-19T11:06:19;19.63;;;2.72;;
68353;SDS011;55274;43.060;25.618;2023-01-19T11:08:47;15.32;;;2.38;;
68353;SDS011;55274;43.060;25.618;2023-01-19T11:11:16;12.68;;;2.40;;
68353;SDS011;55274;43.060;25.618;2023-01-19T11:13:43;19.67;;;3.20;;
68353;SDS011;55274;43.060;25.618;2023-01-19T11:16:25;23.08;;;2.95;;
68353;SDS011;55274;43.060;25.618;2023-01-19T11:18:54;16.15;;;2.28;;
68353;SDS011;55274;43.060;25.618;2023-01-19T11:21:25;23.70;;;5.28;;
68353;SDS011;55274;43.060;25.618;2023-01-19T11:23:54;23.80;;;3.78;;
68353;SDS011;55274;43.060;25.618;2023-01-19T11:28:51;19.98;;;2.35;;
68353;SDS011;55274;43.060;25.618;2023-01-19T11:33:55;15.00;;;2.80;;
68353;SDS011;55274;43.060;25.618;2023-01-19T11:36:27;17.52;;;2.30;;
68353;SDS011;55274;43.060;25.618;2023-01-19T11:39:14;20.13;;;2.50;;
68353;SDS011;55274;43.060;25.618;2023-01-19T11:41:49;23.08;;;3.78;;
68353;SDS011;55274;43.060;25.618;2023-01-19T11:44:20;23.23;;;2.65;;
68353;SDS011;55274;43.060;25.618;2023-01-19T11:47:15;17.10;;;2.70;;
68353;SDS011;55274;43.060;25.618;2023-01-19T11:49:46;13.90;;;2.60;;
68353;SDS011;55274;43.060;25.618;2023-01-19T11:57:36;16.55;;;2.60;;
68353;SDS011;55274;43.060;25.618;2023-01-19T12:00:17;20.80;;;3.08;;
68353;SDS011;55274;43.060;25.618;2023-01-19T12:02:49;16.08;;;2.78;;
68353;SDS011;55274;43.060;25.618;2023-01-19T12:05:19;23.75;;;2.45;;
68353;SDS011;55274;43.060;25.618;2023-01-19T12:07:46;16.45;;;2.97;;
68353;SDS011;55274;43.060;25.618;2023-01-19T12:10:27;23.75;;;3.13;;
68353;SDS011;55274;43.060;25.618;2023-01-19T12:12:55;14.75;;;2.25;;
68353;SDS011;55274;43.060;25.618;2023-01-19T12:15:28;14.93;;;2.60;;
68353;SDS011;55274;43.060;25.618;2023-01-19T12:18:01;14.48;;;2.60;;
68353;SDS011;55274;43.060;25.618;2023-01-19T12:20:50;42.60;;;4.47;;
68353;SDS011;55274;43.060;25.618;2023-01-19T12:23:22;17.92;;;3.00;;
68353;SDS011;55274;43.060;25.618;2023-01-19T12:29:19;17.52;;;2.17;;
68353;SDS011;55274;43.060;25.618;2023-01-19T12:31:55;15.52;;;2.28;;
68353;SDS011;55274;43.060;25.618;2023-01-19T12:37:27;20.35;;;2.78;;
68353;SDS011;55274;43.060;25.618;2023-01-19T12:39:53;19.83;;;2.72;;
68353;SDS011;55274;43.060;25.618;2023-01-19T12:42:25;20.05;;;2.42;;
68353;SDS011;55274;43.060;25.618;2023-01-19T12:45:04;14.95;;;2.75;;
68353;SDS011;55274;43.060;25.618;2023-01-19T12:47:49;16.50;;;2.80;;
68353;SDS011;55274;43.060;25.618;2023-01-19T12:50:17;11.85;;;2.13;;
68353;SDS011;55274;43.060;25.618;2023-01-19T12:53:03;35.10;;;3.72;;
68353;SDS011;55274;43.060;25.618;2023-01-19T12:55:39;15.25;;;2.25;;
68353;SDS011;55274;43.060;25.618;2023-01-19T12:58:17;18.27;;;2.20;;
68353;SDS011;55274;43.060;25.618;2023-01-19T13:00:47;15.45;;;2.17;;
68353;SDS011;55274;43.060;25.618;2023-01-19T13:13:38;15.13;;;2.13;;
68353;SDS011;55274;43.060;25.618;2023-01-19T13:18:46;9.45;;;2.03;;
68353;SDS011;55274;43.060;25.618;2023-01-19T13:21:13;13.70;;;2.60;;
68353;SDS011;55274;43.060;25.618;2023-01-19T13:23:52;18.70;;;2.78;;
68353;SDS011;55274;43.060;25.618;2023-01-19T13:26:21;11.35;;;1.98;;
68353;SDS011;55274;43.060;25.618;2023-01-19T13:29:14;8.82;;;2.17;;
68353;SDS011;55274;43.060;25.618;2023-01-19T13:31:59;15.45;;;2.25;;
68353;SDS011;55274;43.060;25.618;2023-01-19T13:34:42;13.88;;;1.80;;
68353;SDS011;55274;43.060;25.618;2023-01-19T13:37:14;17.00;;;2.90;;
68353;SDS011;55274;43.060;25.618;2023-01-19T13:39:43;16.17;;;2.65;;
68353;SDS011;55274;43.060;25.618;2023-01-19T13:42:17;19.95;;;2.50;;
68353;SDS011;55274;43.060;25.618;2023-01-19T13:44:58;9.00;;;1.75;;
68353;SDS011;55274;43.060;25.618;2023-01-19T13:50:01;10.35;;;1.48;;
68353;SDS011;55274;43.060;25.618;2023-01-19T13:52:28;10.00;;;1.83;;
68353;SDS011;55274;43.060;25.618;2023-01-19T13:54:57;9.43;;;1.42;;
68353;SDS011;55274;43.060;25.618;2023-01-19T13:57:32;12.73;;;2.17;;
68353;SDS011;55274;43.060;25.618;2023-01-19T14:02:29;14.35;;;2.60;;
68353;SDS011;55274;43.060;25.618;2023-01-19T14:04:55;6.70;;;1.83;;
68353;SDS011;55274;43.060;25.618;2023-01-19T14:07:21;8.40;;;1.60;;
68353;SDS011;55274;43.060;25.618;2023-01-19T14:10:00;15.80;;;2.00;;
68353;SDS011;55274;43.060;25.618;2023-01-19T14:12:29;13.13;;;2.47;;
68353;SDS011;55274;43.060;25.618;2023-01-19T14:14:56;11.50;;;1.73;;
68353;SDS011;55274;43.060;25.618;2023-01-19T14:17:24;11.48;;;1.90;;
68353;SDS011;55274;43.060;25.618;2023-01-19T14:19:53;30.27;;;3.08;;
68353;SDS011;55274;43.060;25.618;2023-01-19T14:22:20;9.73;;;1.65;;
68353;SDS011;55274;43.060;25.618;2023-01-19T14:30:55;16.90;;;1.67;;
68353;SDS011;55274;43.060;25.618;2023-01-19T14:33:38;8.55;;;1.88;;
68353;SDS011;55274;43.060;25.618;2023-01-19T14:38:47;13.75;;;1.73;;
68353;SDS011;55274;43.060;25.618;2023-01-19T14:43:58;10.27;;;1.60;;
68353;SDS011;55274;43.060;25.618;2023-01-19T14:46:24;6.97;;;1.60;;
68353;SDS011;55274;43.060;25.618;2023-01-19T14:48:51;9.73;;;1.58;;
68353;SDS011;55274;43.060;25.618;2023-01-19T14:51:22;7.03;;;1.23;;
68353;SDS011;55274;43.060;25.618;2023-01-19T14:53:50;6.82;;;1.40;;
68353;SDS011;55274;43.060;25.618;2023-01-19T14:56:25;9.23;;;1.33;;
68353;SDS011;55274;43.060;25.618;2023-01-19T14:58:54;11.45;;;1.58;;
68353;SDS011;55274;43.060;25.618;2023-01-19T15:01:21;5.50;;;1.30;;
68353;SDS011;55274;43.060;25.618;2023-01-19T15:03:48;9.90;;;2.03;;
68353;SDS011;55274;43.060;25.618;2023-01-19T15:06:14;7.65;;;1.40;;
68353;SDS011;55274;43.060;25.618;2023-01-19T15:08:42;8.98;;;1.45;;
68353;SDS011;55274;43.060;25.618;2023-01-19T15:13:51;4.82;;;1.02;;
68353;SDS011;55274;43.060;25.618;2023-01-19T15:16:18;5.18;;;1.33;;
68353;SDS011;55274;43.060;25.618;2023-01-19T15:18:44;8.40;;;1.58;;
68353;SDS011;55274;43.060;25.618;2023-01-19T15:21:11;9.75;;;1.33;;
68353;SDS011;55274;43.060;25.618;2023-01-19T15:23:39;15.48;;;1.60;;
68353;SDS011;55274;43.060;25.618;2023-01-19T15:26:05;10.20;;;1.80;;
68353;SDS011;55274;43.060;25.618;2023-01-19T15:28:34;13.25;;;1.95;;
68353;SDS011;55274;43.060;25.618;2023-01-19T15:31:00;6.90;;;1.70;;
68353;SDS011;55274;43.060;25.618;2023-01-19T15:33:26;11.98;;;1.55;;
68353;SDS011;55274;43.060;25.618;2023-01-19T15:35:56;8.23;;;1.40;;
68353;SDS011;55274;43.060;25.618;2023-01-19T15:38:23;16.08;;;2.33;;
68353;SDS011;55274;43.060;25.618;2023-01-19T15:40:50;6.15;;;1.33;;
68353;SDS011;55274;43.060;25.618;2023-01-19T15:43:16;9.27;;;1.60;;
68353;SDS011;55274;43.060;25.618;2023-01-19T15:45:43;5.72;;;1.33;;
68353;SDS011;55274;43.060;25.618;2023-01-19T15:48:14;10.38;;;1.13;;
68353;SDS011;55274;43.060;25.618;2023-01-19T15:50:41;9.70;;;1.83;;
68353;SDS011;55274;43.060;25.618;2023-01-19T15:53:12;8.40;;;1.30;;
68353;SDS011;55274;43.060;25.618;2023-01-19T15:55:42;8.75;;;1.42;;
68353;SDS011;55274;43.060;25.618;2023-01-19T15:58:09;8.25;;;1.80;;
68353;SDS011;55274;43.060;25.618;2023-01-19T16:00:37;16.65;;;1.67;;
68353;SDS011;55274;43.060;25.618;2023-01-19T16:03:03;6.03;;;1.35;;
68353;SDS011;55274;43.060;25.618;2023-01-19T16:05:29;4.68;;;1.25;;
68353;SDS011;55274;43.060;25.618;2023-01-19T16:07:54;5.55;;;1.55;;
68353;SDS011;55274;43.060;25.618;2023-01-19T16:10:21;8.60;;;1.40;;